If you wish to contribute or participate in the discussions about articles you are invited to join SKYbrary as a registered user

 Actions

Araraquara Airport

From SKYbrary Wiki

SBAQ
Airport
ICAO: SBAQ – IATA: AQA
Summary
Name Araraquara Airport
Region South America and Caribbean
Territory Brazil BR.gif
Location Araraquara, Sao Paulo
Serving Araraquara
Elevation 711.403 m
2,334 ft711.403 m
Coordinates 21° 48' 15.98" S, 48° 8' 25.01" W
Runways
Designator Length Width Surface ROPS
17/35 1800 m5,905.512 ft
30 m98.425 ft
ASP /


METAR
Observation SBAQ 250000Z 00000KT CAVOK 25/21 Q1020
Station ARARAQUARA
Date/Time 25 April 2019 00:00:00
Wind direction
Wind speed 00 kts
Lowest cloud amount clouds and visibility OK
Temperature 25°C
Dew point 21°C
Humidity 78%
QNH 1020 hPa
Weather condition n/a

Bartolomeu de Gusmão–Araraquara State Airport is the airport serving Araraquara, Brazil.

Climatology

Humid subtropical climate (Köppen climate classification Cwa)

Maps

Terrain

Loading map...

Airport Layout

Loading map...


Accidents & Serious Incidents at or in vicinity of SBAQ

None on SKYbrary